Flight Track Log - Related Links

Times and Time Zones

All times are in EDT time to prevent confusion due to time zone crossing. See the N880QS flight status page for this flight to view local times or setup timezone preferences in your user account.

Time Position Orientation Groundspeed Altitude Reporting Facility
EDT Latitude Longitude Course Direction KTS MPH feet Rate Location/Type
Thu 06:05:21 PM 42.3667 -70.9833 71° East 183 211 600  Level Boston TRACON
Thu 06:07:27 PM 42.4114 -70.8036 11° North 260 299 8,400 3,613 Climbing Boston Center
Thu 06:08:27 PM 42.4822 -70.7847 322° Northwest 231 266 11,800 3,500 Climbing Boston Center
Thu 06:09:27 PM 42.5372 -70.8425 308° West 198 228 15,400 3,300 Climbing Boston Center
Thu 06:10:27 PM 42.5797 -70.9175 307° West 220 253 18,400 2,400 Climbing Boston Center
Thu 06:11:27 PM 42.6289 -71.0067 310° West 268 308 20,200 1,900 Climbing Boston Center
Thu 06:12:27 PM 42.6842 -71.0956 308° West 294 338 22,200 2,050 Climbing Boston Center
Thu 06:13:27 PM 42.7394 -71.1933 309° West 318 366 24,300 2,000 Climbing Boston Center
Thu 06:14:27 PM 42.7969 -71.2914 314° West 324 373 26,200 1,800 Climbing Boston Center
Thu 06:15:27 PM 42.8622 -71.3836 280° West 330 380 27,900 1,750 Climbing Boston Center
Thu 06:16:27 PM 42.8781 -71.5053 279° West 313 360 29,700 1,700 Climbing Boston Center
Thu 06:17:27 PM 42.8914 -71.6156 277° West 318 366 31,300 1,150 Climbing Boston Center
Thu 06:18:27 PM 42.9025 -71.7428 275° West 330 380 32,000 350 Climbing Boston Center
Thu 06:19:27 PM 42.9117 -71.8761 277° West 344 396 32,000  Level Boston Center
Thu 06:20:27 PM 42.9247 -72.0147 275° West 364 419 32,000  Level Boston Center
Thu 06:21:27 PM 42.9336 -72.1564 276° West 374 430 32,000  Level Boston Center
Thu 06:22:27 PM 42.9464 -72.3125 277° West 380 437 32,000  Level Boston Center
Thu 06:23:27 PM 42.9589 -72.4600 276° West 386 444 32,000  Level Boston Center
Thu 06:24:27 PM 42.9692 -72.6047 272° West 386 444 32,000  Level Boston Center
Thu 06:25:27 PM 42.9731 -72.7381 275° West 386 444 32,000  Level Boston Center
Thu 06:26:27 PM 42.9831 -72.8828 276° West 386 444 32,000  Level Boston Center
Thu 06:27:27 PM 42.9950 -73.0333 275° West 392 451 32,000  Level Boston Center
Thu 06:28:27 PM 43.0044 -73.1783 276° West 392 451 32,000  Level Boston Center
Thu 06:29:27 PM 43.0158 -73.3289 273° West 392 451 32,000  Level Boston Center
Thu 06:30:27 PM 43.0208 -73.4708 275° West 386 444 32,000  Level Boston Center
Thu 06:31:27 PM 43.0300 -73.6189 275° West 386 444 32,000  Level Boston Center
Thu 06:32:27 PM 43.0386 -73.7694 275° West 386 444 32,000  Level Boston Center
Thu 06:33:27 PM 43.0472 -73.9175 276° West 386 444 32,000  Level Boston Center
Thu 06:34:27 PM 43.0578 -74.0683 273° West 386 444 32,000  Level Boston Center
Thu 06:35:27 PM 43.0639 -74.2192 275° West 391 450 32,000  Level Boston Center
Thu 06:36:27 PM 43.0739 -74.3700 274° West 396 456 32,000  Level Boston Center
Thu 06:37:27 PM 43.0817 -74.5181 274° West 401 461 32,000  Level Boston Center
Thu 06:38:27 PM 43.0892 -74.6719 275° West 401 461 32,000  Level Boston Center
Thu 06:39:27 PM 43.0986 -74.8231 273° West 407 468 32,000  Level Boston Center
Thu 06:40:27 PM 43.1056 -74.9856 274° West 402 463 32,000  Level Boston Center
Thu 06:41:27 PM 43.1125 -75.1392 273° West 402 463 32,000  Level Boston Center
Thu 06:42:27 PM 43.1192 -75.2933 274° West 402 463 32,000  Level Boston Center
Thu 06:43:27 PM 43.1278 -75.4472 273° West 402 463 32,000  Level Boston Center
Thu 06:44:27 PM 43.1342 -75.5983 258° West 402 463 32,000  Level Boston Center
Thu 06:45:27 PM 43.1108 -75.7508 257° West 402 463 32,000  Level Boston Center
Thu 06:46:27 PM 43.0856 -75.9031 258° West 407 468 32,000  Level Boston Center
Thu 06:48:40 PM 43.0311 -76.2456 257° West 415 478 32,000  Level Cleveland Center
Thu 06:49:40 PM 43.0056 -76.3981 258° West 420 483 32,000  Level Cleveland Center
Thu 06:50:41 PM 42.9817 -76.5472 256° West 420 483 32,000  Level Cleveland Center
Thu 06:51:41 PM 42.9536 -76.7022 258° West 420 483 32,000  Level Cleveland Center
Thu 06:52:40 PM 42.9294 -76.8569 258° West 420 483 32,000  Level Cleveland Center
Thu 06:53:40 PM 42.9053 -77.0117 256° West 420 483 32,000  Level Cleveland Center
Thu 06:54:41 PM 42.8767 -77.1661 258° West 420 483 32,000  Level Cleveland Center
Thu 06:55:40 PM 42.8519 -77.3233 257° West 420 483 32,000  Level Cleveland Center
Thu 06:56:40 PM 42.8269 -77.4747 256° West 420 483 32,000  Level Cleveland Center
Thu 06:57:40 PM 42.7978 -77.6319 256° West 420 483 32,000  Level Cleveland Center
Thu 06:58:40 PM 42.7703 -77.7858 258° West 420 483 32,000  Level Cleveland Center
Thu 06:59:41 PM 42.7467 -77.9311 256° West 425 489 32,000 -50 Level Cleveland Center
Thu 07:00:40 PM 42.7167 -78.0908 257° West 430 495 31,900  Descending Cleveland Center
Thu 07:01:40 PM 42.6928 -78.2358 257° West 430 495 32,000 50 Climbing Cleveland Center
Thu 07:02:40 PM 42.6647 -78.3950 256° West 430 495 32,000  Level Cleveland Center
Thu 07:03:40 PM 42.6325 -78.5739 257° West 436 502 32,000  Level Cleveland Center
Thu 07:04:40 PM 42.6078 -78.7156 255° West 441 507 32,000  Level Cleveland Center
Thu 07:05:40 PM 42.5767 -78.8717 256° West 439 505 32,000  Level Cleveland Center
Thu 07:06:40 PM 42.5458 -79.0417 256° West 434 499 32,000  Level Cleveland Center
Thu 07:07:40 PM 42.5167 -79.2000 255° West 434 499 32,000  Level Cleveland Center
Thu 07:08:41 PM 42.4889 -79.3414 257° West 434 499 32,000  Level Cleveland Center
Thu 07:09:41 PM 42.4594 -79.5081 255° West 429 494 32,000  Level Cleveland Center
Thu 07:10:40 PM 42.4275 -79.6661 256° West 424 488 32,000  Level Cleveland Center
Thu 07:11:40 PM 42.3994 -79.8214 255° West 424 488 32,000  Level Cleveland Center
Thu 07:12:41 PM 42.3689 -79.9789 255° West 429 494 32,000  Level Cleveland Center
Thu 07:13:40 PM 42.3386 -80.1367 253° West 434 499 32,000  Level Cleveland Center
Thu 07:14:40 PM 42.3036 -80.2911 256° West 439 505 32,000  Level Cleveland Center
Thu 07:15:40 PM 42.2747 -80.4486 254° West 434 499 32,000  Level Cleveland Center
Thu 07:16:40 PM 42.2414 -80.6056 255° West 431 496 32,000  Level Cleveland Center
Thu 07:17:40 PM 42.2100 -80.7597 254° West 436 502 32,000  Level Cleveland Center
Thu 07:18:40 PM 42.1761 -80.9194 256° West 436 502 32,000  Level Cleveland Center
Thu 07:19:40 PM 42.1464 -81.0761 255° West 436 502 32,000  Level Cleveland Center
Thu 07:20:40 PM 42.1144 -81.2325 254° West 436 502 32,000  Level Cleveland Center
Thu 07:21:41 PM 42.0800 -81.3917 254° West 436 502 32,000  Level Cleveland Center
Thu 07:22:40 PM 42.0475 -81.5478 254° West 436 502 32,000  Level Cleveland Center
Thu 07:23:40 PM 42.0150 -81.7039 254° West 436 502 32,000  Level Cleveland Center
Thu 07:24:41 PM 41.9800 -81.8625 254° West 436 502 32,000  Level Cleveland Center
Thu 07:25:40 PM 41.9492 -82.0042 254° West 436 502 32,000 -50 Level Cleveland Center
Thu 07:26:40 PM 41.9136 -82.1653 254° West 441 507 31,900  Descending Cleveland Center
Thu 07:27:40 PM 41.8800 -82.3206 253° West 441 507 32,000 50 Climbing Cleveland Center
Thu 07:28:40 PM 41.8397 -82.4950 253° West 441 507 32,000  Level Cleveland Center
Thu 07:29:40 PM 41.8036 -82.6556 253° West 441 507 32,000  Level Cleveland Center
Thu 07:30:40 PM 41.7675 -82.8103 254° West 441 507 32,000  Level Cleveland Center
Thu 07:31:40 PM 41.7328 -82.9733 253° West 446 513 32,000  Level Cleveland Center
Thu 07:32:40 PM 41.6961 -83.1333 253° West 446 513 32,000  Level Cleveland Center
Thu 07:33:41 PM 41.6589 -83.2931 254° West 451 519 32,000  Level Cleveland Center
Thu 07:34:40 PM 41.6239 -83.4528 253° West 451 519 32,000  Level Cleveland Center
Thu 07:35:40 PM 41.5908 -83.5956 252° West 451 519 32,000  Level Cleveland Center
Thu 07:36:41 PM 41.5533 -83.7519 254° West 456 525 32,000  Level Cleveland Center
Thu 07:37:40 PM 41.5175 -83.9139 265° West 451 519 32,000  Level Cleveland Center
Thu 07:39:30 PM 41.4956 -84.2231 268° West 434 499 32,000  Level Chicago Center
Thu 07:40:30 PM 41.4917 -84.3675 267° West 434 499 32,000 -1,000 Level Chicago Center
Thu 07:41:30 PM 41.4842 -84.5344 269° West 445 512 30,000 -1,000 Descending Chicago Center
Thu 07:42:30 PM 41.4825 -84.6983 273° West 445 512 30,000  Level Chicago Center
Thu 07:43:30 PM 41.4894 -84.8725 272° West 440 506 30,000  Level Chicago Center
Thu 07:44:30 PM 41.4936 -85.0358 273° West 440 506 30,000 -1,050 Level Chicago Center
Thu 07:45:30 PM 41.4997 -85.1992 272° West 440 506 27,900 -2,100 Descending Chicago Center
Thu 07:46:30 PM 41.5028 -85.3458 274° West 440 506 25,800 -2,200 Descending Chicago Center
Thu 07:47:30 PM 41.5106 -85.5064 273° West 440 506 23,500 -2,250 Descending Chicago Center
Thu 07:48:30 PM 41.5161 -85.6753 272° West 433 498 21,300 -2,250 Descending Chicago Center
Thu 07:49:30 PM 41.5208 -85.8247 272° West 420 483 19,000 -2,400 Descending Chicago Center
Thu 07:50:30 PM 41.5250 -85.9689 272° West 397 457 16,500 -2,250 Descending Chicago Center
Thu 07:51:30 PM 41.5286 -86.0906 269° West 382 440 14,500 -2,200 Descending Chicago Center
Thu 07:52:30 PM 41.5261 -86.2267 270° West 368 423 12,100 -1,700 Descending Chicago Center
Thu 07:53:30 PM 41.5256 -86.3600 269° West 363 418 11,100 -800 Descending Chicago Center
Thu 07:54:30 PM 41.5231 -86.5125 270° West 368 423 10,500 -500 Descending Chicago Center
Thu 07:55:30 PM 41.5225 -86.6514 272° West 374 430 10,100 -200 Descending Chicago Center
Thu 07:56:30 PM 41.5253 -86.7789 267° West 374 430 10,100 -200 Level Chicago Center
Thu 07:57:30 PM 41.5197 -86.9067 270° West 372 428 9,700 -950 Descending Chicago Center
Thu 07:58:30 PM 41.5200 -87.0147 262° West 331 381 8,200 -1,550 Descending Chicago Center
Thu 07:59:30 PM 41.5094 -87.1150 278° West 297 342 6,600 -1,294 Descending Chicago Center
Thu 08:00:12 PM 41.5167 -87.1833 270° West 278 320 6,000 -588 Descending Chicago TRACON
Thu 08:01:12 PM 41.5167 -87.2833 283° West 272 313 5,600 -632 Descending Chicago TRACON
Thu 08:02:06 PM 41.5333 -87.3833 283° West 272 313 4,800 -800 Descending Chicago TRACON
Thu 08:03:12 PM 41.5500 -87.4833 283° West 277 319 4,000 -381 Descending Chicago TRACON
Thu 08:04:12 PM 41.5667 -87.5833 270° West 271 312 4,000  Level Chicago TRACON
Thu 08:05:12 PM 41.5667 -87.6833 283° West 272 313 4,000  Level Chicago TRACON
Thu 08:06:12 PM 41.5833 -87.7833 289° West 236 272 4,000 -400 Level Chicago TRACON
Thu 08:07:12 PM 41.6000 -87.8500 334° Northwest 232 267 3,200 -522 Descending Chicago TRACON
Thu 08:08:07 PM 41.6500 -87.8833 20° North 198 228 3,000 -110 Descending Chicago TRACON
Thu 08:09:01 PM 41.6833 -87.8667 26° Northeast 187 215 3,000 -450 Level Chicago TRACON
Thu 08:10:07 PM 41.7333 -87.8333 48° Northeast 180 207 2,100 -810 Descending Chicago TRACON
Thu 08:11:07 PM 41.7667 -87.7833 48° Northeast 150 173 1,300 -800 Descending Chicago TRACON

Login

Don't have an account? Register now (free) for customized features, flight alerts, and more!